sensor_id;sensor_type;location;lat;lon;timestamp;pressure;altitude;pressure_sealevel;temperature;humidity
59859;BME280;45734;53.648;9.566;2022-11-15T00:04:09;101032.63;;;5.44;100.00
59859;BME280;45734;53.648;9.566;2022-11-15T00:09:10;101037.66;;;5.47;100.00
59859;BME280;45734;53.648;9.566;2022-11-15T00:14:10;101031.66;;;5.45;100.00
59859;BME280;45734;53.648;9.566;2022-11-15T00:19:10;101049.56;;;5.41;100.00
59859;BME280;45734;53.648;9.566;2022-11-15T00:24:11;101035.38;;;5.31;100.00
59859;BME280;45734;53.648;9.566;2022-11-15T00:29:11;101037.66;;;5.36;100.00
59859;BME280;45734;53.648;9.566;2022-11-15T00:34:11;101036.22;;;5.43;100.00
59859;BME280;45734;53.648;9.566;2022-11-15T00:39:12;101037.78;;;5.57;100.00
59859;BME280;45734;53.648;9.566;2022-11-15T00:44:12;101034.88;;;5.60;100.00
59859;BME280;45734;53.648;9.566;2022-11-15T00:49:12;101037.19;;;5.64;100.00
59859;BME280;45734;53.648;9.566;2022-11-15T00:54:13;101032.59;;;5.66;100.00
59859;BME280;45734;53.648;9.566;2022-11-15T00:59:13;101018.78;;;5.63;100.00
59859;BME280;45734;53.648;9.566;2022-11-15T01:04:14;101038.69;;;5.78;100.00
59859;BME280;45734;53.648;9.566;2022-11-15T01:09:14;101017.94;;;5.74;100.00
59859;BME280;45734;53.648;9.566;2022-11-15T01:14:14;101031.16;;;5.74;100.00
59859;BME280;45734;53.648;9.566;2022-11-15T01:19:14;101024.22;;;5.61;100.00
59859;BME280;45734;53.648;9.566;2022-11-15T01:24:15;101027.53;;;5.63;100.00
59859;BME280;45734;53.648;9.566;2022-11-15T01:29:15;101020.50;;;5.53;100.00
59859;BME280;45734;53.648;9.566;2022-11-15T01:34:15;101008.00;;;5.43;100.00
59859;BME280;45734;53.648;9.566;2022-11-15T01:39:16;101002.25;;;5.38;100.00
59859;BME280;45734;53.648;9.566;2022-11-15T01:44:38;101007.53;;;5.27;100.00
59859;BME280;45734;53.648;9.566;2022-11-15T01:49:47;101015.69;;;5.24;100.00
59859;BME280;45734;53.648;9.566;2022-11-15T01:54:53;101007.78;;;5.24;100.00
59859;BME280;45734;53.648;9.566;2022-11-15T01:59:57;101005.97;;;5.25;100.00
59859;BME280;45734;53.648;9.566;2022-11-15T02:04:57;101007.53;;;5.27;100.00
59859;BME280;45734;53.648;9.566;2022-11-15T02:10:06;100996.97;;;5.16;100.00
59859;BME280;45734;53.648;9.566;2022-11-15T02:15:08;100989.88;;;5.05;100.00
59859;BME280;45734;53.648;9.566;2022-11-15T02:20:35;100988.19;;;4.93;100.00
59859;BME280;45734;53.648;9.566;2022-11-15T02:36:40;100971.25;;;4.84;100.00
59859;BME280;45734;53.648;9.566;2022-11-15T02:47:03;100953.75;;;4.94;100.00
59859;BME280;45734;53.648;9.566;2022-11-15T02:52:17;100940.09;;;4.89;100.00
59859;BME280;45734;53.648;9.566;2022-11-15T02:57:36;100952.44;;;4.78;100.00
59859;BME280;45734;53.648;9.566;2022-11-15T03:03:12;100950.03;;;4.74;100.00
59859;BME280;45734;53.648;9.566;2022-11-15T03:13:24;100956.81;;;4.43;100.00
59859;BME280;45734;53.648;9.566;2022-11-15T03:18:36;100961.13;;;4.44;100.00
59859;BME280;45734;53.648;9.566;2022-11-15T03:23:39;100959.59;;;4.18;100.00
59859;BME280;45734;53.648;9.566;2022-11-15T03:28:43;100951.59;;;3.95;100.00
59859;BME280;45734;53.648;9.566;2022-11-15T03:33:48;100938.78;;;3.67;100.00
59859;BME280;45734;53.648;9.566;2022-11-15T03:38:51;100947.56;;;3.54;100.00
59859;BME280;45734;53.648;9.566;2022-11-15T03:43:56;100954.59;;;3.91;100.00
59859;BME280;45734;53.648;9.566;2022-11-15T03:49:10;100946.34;;;4.30;100.00
59859;BME280;45734;53.648;9.566;2022-11-15T03:54:12;100929.00;;;4.62;100.00
59859;BME280;45734;53.648;9.566;2022-11-15T03:59:13;100936.81;;;4.97;100.00
59859;BME280;45734;53.648;9.566;2022-11-15T04:04:13;100942.50;;;5.15;100.00
59859;BME280;45734;53.648;9.566;2022-11-15T04:09:14;100935.25;;;5.06;100.00
59859;BME280;45734;53.648;9.566;2022-11-15T04:14:14;100957.34;;;5.16;100.00
59859;BME280;45734;53.648;9.566;2022-11-15T04:19:14;100948.69;;;5.25;100.00
59859;BME280;45734;53.648;9.566;2022-11-15T04:24:33;100966.69;;;5.54;100.00
59859;BME280;45734;53.648;9.566;2022-11-15T04:29:34;100951.75;;;5.64;100.00
59859;BME280;45734;53.648;9.566;2022-11-15T04:34:34;100961.97;;;5.68;100.00
59859;BME280;45734;53.648;9.566;2022-11-15T04:39:35;100961.09;;;5.79;100.00
59859;BME280;45734;53.648;9.566;2022-11-15T04:44:35;100967.19;;;5.91;100.00
59859;BME280;45734;53.648;9.566;2022-11-15T04:49:35;100965.00;;;5.96;100.00
59859;BME280;45734;53.648;9.566;2022-11-15T04:54:36;100956.25;;;5.96;100.00
59859;BME280;45734;53.648;9.566;2022-11-15T04:59:36;100952.16;;;6.03;100.00
59859;BME280;45734;53.648;9.566;2022-11-15T05:04:36;100950.06;;;6.06;100.00
59859;BME280;45734;53.648;9.566;2022-11-15T05:09:37;100945.56;;;5.97;100.00
59859;BME280;45734;53.648;9.566;2022-11-15T05:14:37;100951.09;;;5.83;100.00
59859;BME280;45734;53.648;9.566;2022-11-15T05:19:37;100932.13;;;5.78;100.00
59859;BME280;45734;53.648;9.566;2022-11-15T05:24:38;100938.13;;;5.80;100.00
59859;BME280;45734;53.648;9.566;2022-11-15T05:29:38;100922.28;;;5.80;100.00
59859;BME280;45734;53.648;9.566;2022-11-15T05:34:39;100941.94;;;5.87;100.00
59859;BME280;45734;53.648;9.566;2022-11-15T05:39:39;100934.16;;;5.85;100.00
59859;BME280;45734;53.648;9.566;2022-11-15T05:44:43;100939.69;;;5.94;100.00
59859;BME280;45734;53.648;9.566;2022-11-15T05:49:45;100953.09;;;6.02;100.00
59859;BME280;45734;53.648;9.566;2022-11-15T05:54:46;100943.75;;;5.98;100.00
59859;BME280;45734;53.648;9.566;2022-11-15T05:59:47;100938.94;;;5.92;100.00
59859;BME280;45734;53.648;9.566;2022-11-15T06:04:48;100936.81;;;5.85;100.00
59859;BME280;45734;53.648;9.566;2022-11-15T06:09:49;100932.59;;;5.83;100.00
59859;BME280;45734;53.648;9.566;2022-11-15T06:14:49;100929.38;;;5.79;100.00
59859;BME280;45734;53.648;9.566;2022-11-15T06:19:49;100946.78;;;5.82;100.00
59859;BME280;45734;53.648;9.566;2022-11-15T06:24:49;100945.66;;;5.84;100.00
59859;BME280;45734;53.648;9.566;2022-11-15T06:29:50;100949.03;;;5.86;100.00
59859;BME280;45734;53.648;9.566;2022-11-15T06:34:50;100944.00;;;5.83;100.00
59859;BME280;45734;53.648;9.566;2022-11-15T06:39:50;100951.69;;;5.86;100.00
59859;BME280;45734;53.648;9.566;2022-11-15T06:44:51;100956.47;;;5.93;100.00
59859;BME280;45734;53.648;9.566;2022-11-15T06:49:51;100948.69;;;5.91;100.00
59859;BME280;45734;53.648;9.566;2022-11-15T06:54:51;100970.91;;;6.00;100.00
59859;BME280;45734;53.648;9.566;2022-11-15T06:59:52;100962.00;;;6.01;100.00
59859;BME280;45734;53.648;9.566;2022-11-15T07:04:52;100964.84;;;6.09;100.00
59859;BME280;45734;53.648;9.566;2022-11-15T07:09:52;100981.19;;;6.14;100.00
59859;BME280;45734;53.648;9.566;2022-11-15T07:14:53;100964.47;;;6.13;100.00
59859;BME280;45734;53.648;9.566;2022-11-15T07:19:53;100966.22;;;6.24;100.00
59859;BME280;45734;53.648;9.566;2022-11-15T07:24:53;100965.91;;;6.39;100.00
59859;BME280;45734;53.648;9.566;2022-11-15T07:29:54;100956.00;;;6.52;100.00
59859;BME280;45734;53.648;9.566;2022-11-15T07:34:54;100965.25;;;6.67;100.00
59859;BME280;45734;53.648;9.566;2022-11-15T07:39:54;100960.16;;;6.75;100.00
59859;BME280;45734;53.648;9.566;2022-11-15T07:44:55;100962.47;;;6.90;100.00
59859;BME280;45734;53.648;9.566;2022-11-15T07:49:55;100965.72;;;7.03;100.00
59859;BME280;45734;53.648;9.566;2022-11-15T07:54:55;100975.13;;;7.17;100.00
59859;BME280;45734;53.648;9.566;2022-11-15T07:59:56;100975.16;;;7.26;100.00
59859;BME280;45734;53.648;9.566;2022-11-15T08:04:56;100964.72;;;7.25;100.00
59859;BME280;45734;53.648;9.566;2022-11-15T08:09:57;100971.13;;;7.32;100.00
59859;BME280;45734;53.648;9.566;2022-11-15T08:14:58;100964.19;;;7.41;100.00
59859;BME280;45734;53.648;9.566;2022-11-15T08:19:58;100966.47;;;7.55;100.00
59859;BME280;45734;53.648;9.566;2022-11-15T08:24:59;100967.06;;;7.68;100.00
59859;BME280;45734;53.648;9.566;2022-11-15T08:29:59;100962.59;;;7.79;100.00
59859;BME280;45734;53.648;9.566;2022-11-15T08:34:59;100963.84;;;7.94;100.00
59859;BME280;45734;53.648;9.566;2022-11-15T08:39:59;100964.84;;;8.12;100.00
59859;BME280;45734;53.648;9.566;2022-11-15T08:45:05;100962.75;;;8.35;100.00
59859;BME280;45734;53.648;9.566;2022-11-15T08:50:05;100964.56;;;8.54;100.00
59859;BME280;45734;53.648;9.566;2022-11-15T08:55:06;100963.69;;;8.64;100.00
59859;BME280;45734;53.648;9.566;2022-11-15T09:00:07;100959.22;;;8.74;100.00
59859;BME280;45734;53.648;9.566;2022-11-15T09:05:08;100970.63;;;8.94;100.00
59859;BME280;45734;53.648;9.566;2022-11-15T09:10:08;100975.75;;;9.05;100.00
59859;BME280;45734;53.648;9.566;2022-11-15T09:15:09;100972.75;;;9.18;100.00
59859;BME280;45734;53.648;9.566;2022-11-15T09:20:09;100959.81;;;9.33;100.00
59859;BME280;45734;53.648;9.566;2022-11-15T09:25:10;100964.06;;;9.71;100.00
59859;BME280;45734;53.648;9.566;2022-11-15T09:30:10;100978.38;;;10.06;100.00
59859;BME280;45734;53.648;9.566;2022-11-15T09:35:10;100972.72;;;10.36;100.00
59859;BME280;45734;53.648;9.566;2022-11-15T09:40:12;100983.63;;;10.51;100.00
59859;BME280;45734;53.648;9.566;2022-11-15T09:45:53;100992.66;;;10.58;100.00
59859;BME280;45734;53.648;9.566;2022-11-15T09:50:56;100989.34;;;10.56;100.00
59859;BME280;45734;53.648;9.566;2022-11-15T09:56:02;100986.31;;;10.51;100.00
59859;BME280;45734;53.648;9.566;2022-11-15T10:01:09;100987.06;;;10.43;100.00
59859;BME280;45734;53.648;9.566;2022-11-15T10:06:22;100976.50;;;10.16;100.00
59859;BME280;45734;53.648;9.566;2022-11-15T10:11:29;100990.69;;;9.89;100.00
59859;BME280;45734;53.648;9.566;2022-11-15T10:22:25;100973.72;;;9.54;100.00
59859;BME280;45734;53.648;9.566;2022-11-15T10:27:26;100969.13;;;9.46;100.00
59859;BME280;45734;53.648;9.566;2022-11-15T10:32:27;100960.44;;;9.44;100.00
59859;BME280;45734;53.648;9.566;2022-11-15T10:37:30;100946.56;;;9.50;100.00
59859;BME280;45734;53.648;9.566;2022-11-15T10:42:30;100937.75;;;9.50;100.00
59859;BME280;45734;53.648;9.566;2022-11-15T10:47:32;100942.44;;;9.66;100.00
59859;BME280;45734;53.648;9.566;2022-11-15T10:52:34;100943.72;;;9.80;100.00
59859;BME280;45734;53.648;9.566;2022-11-15T10:57:37;100932.09;;;9.98;100.00
59859;BME280;45734;53.648;9.566;2022-11-15T11:02:41;100921.66;;;10.05;100.00
59859;BME280;45734;53.648;9.566;2022-11-15T11:07:58;100922.75;;;10.12;100.00
59859;BME280;45734;53.648;9.566;2022-11-15T11:13:25;100923.34;;;10.24;100.00
59859;BME280;45734;53.648;9.566;2022-11-15T11:18:33;100919.16;;;10.22;100.00
59859;BME280;45734;53.648;9.566;2022-11-15T11:23:54;100921.81;;;10.22;100.00
59859;BME280;45734;53.648;9.566;2022-11-15T11:44:33;100885.66;;;10.63;100.00
59859;BME280;45734;53.648;9.566;2022-11-15T11:54:54;100883.25;;;10.78;100.00
59859;BME280;45734;53.648;9.566;2022-11-15T12:00:03;100873.34;;;10.62;100.00
59859;BME280;45734;53.648;9.566;2022-11-15T12:10:39;100861.22;;;10.68;100.00
59859;BME280;45734;53.648;9.566;2022-11-15T12:16:03;100866.88;;;10.73;100.00
59859;BME280;45734;53.648;9.566;2022-11-15T12:21:13;100864.44;;;10.79;100.00
59859;BME280;45734;53.648;9.566;2022-11-15T12:26:37;100857.31;;;10.88;100.00
59859;BME280;45734;53.648;9.566;2022-11-15T12:31:42;100846.53;;;10.98;100.00
59859;BME280;45734;53.648;9.566;2022-11-15T12:36:44;100846.56;;;11.06;100.00
59859;BME280;45734;53.648;9.566;2022-11-15T12:52:11;100826.09;;;11.31;100.00
59859;BME280;45734;53.648;9.566;2022-11-15T13:02:19;100818.28;;;11.46;100.00
59859;BME280;45734;53.648;9.566;2022-11-15T13:17:50;100804.31;;;11.68;100.00
59859;BME280;45734;53.648;9.566;2022-11-15T13:33:17;100813.97;;;11.77;100.00
59859;BME280;45734;53.648;9.566;2022-11-15T13:38:29;100787.63;;;11.74;100.00
59859;BME280;45734;53.648;9.566;2022-11-15T13:43:34;100787.31;;;11.86;100.00
59859;BME280;45734;53.648;9.566;2022-11-15T13:48:35;100785.47;;;11.78;100.00
59859;BME280;45734;53.648;9.566;2022-11-15T13:53:38;100766.28;;;11.66;100.00
59859;BME280;45734;53.648;9.566;2022-11-15T13:58:40;100777.28;;;11.63;100.00
59859;BME280;45734;53.648;9.566;2022-11-15T14:03:50;100774.97;;;11.52;100.00
59859;BME280;45734;53.648;9.566;2022-11-15T14:08:58;100767.31;;;11.41;100.00
59859;BME280;45734;53.648;9.566;2022-11-15T14:19:42;100764.59;;;11.24;100.00
59859;BME280;45734;53.648;9.566;2022-11-15T14:30:17;100761.91;;;10.92;100.00
59859;BME280;45734;53.648;9.566;2022-11-15T14:41:48;100763.16;;;10.71;100.00
59859;BME280;45734;53.648;9.566;2022-11-15T14:46:48;100756.63;;;10.57;100.00
59859;BME280;45734;53.648;9.566;2022-11-15T14:51:48;100759.25;;;10.49;100.00
59859;BME280;45734;53.648;9.566;2022-11-15T14:56:48;100773.38;;;10.50;100.00
59859;BME280;45734;53.648;9.566;2022-11-15T15:01:49;100781.69;;;10.38;100.00
59859;BME280;45734;53.648;9.566;2022-11-15T15:06:49;100781.19;;;10.43;100.00
59859;BME280;45734;53.648;9.566;2022-11-15T15:11:49;100775.81;;;10.35;100.00
59859;BME280;45734;53.648;9.566;2022-11-15T15:16:49;100766.91;;;10.26;100.00
59859;BME280;45734;53.648;9.566;2022-11-15T15:21:50;100779.91;;;10.21;100.00
59859;BME280;45734;53.648;9.566;2022-11-15T15:26:50;100763.13;;;10.03;100.00
59859;BME280;45734;53.648;9.566;2022-11-15T15:31:50;100768.56;;;9.93;100.00
59859;BME280;45734;53.648;9.566;2022-11-15T15:37:34;100759.63;;;9.76;100.00
59859;BME280;45734;53.648;9.566;2022-11-15T15:42:27;100755.25;;;9.67;100.00
59859;BME280;45734;53.648;9.566;2022-11-15T15:47:27;100748.28;;;9.48;100.00
59859;BME280;45734;53.648;9.566;2022-11-15T15:52:27;100733.19;;;9.30;100.00
59859;BME280;45734;53.648;9.566;2022-11-15T15:57:28;100737.22;;;9.17;100.00
59859;BME280;45734;53.648;9.566;2022-11-15T16:02:28;100735.53;;;9.16;100.00
59859;BME280;45734;53.648;9.566;2022-11-15T16:07:28;100725.22;;;9.13;100.00
59859;BME280;45734;53.648;9.566;2022-11-15T16:12:34;100721.28;;;9.17;100.00
59859;BME280;45734;53.648;9.566;2022-11-15T16:17:37;100705.56;;;9.23;100.00
59859;BME280;45734;53.648;9.566;2022-11-15T16:22:38;100709.25;;;9.30;100.00
59859;BME280;45734;53.648;9.566;2022-11-15T16:27:38;100707.97;;;9.35;100.00
59859;BME280;45734;53.648;9.566;2022-11-15T16:32:44;100701.22;;;9.40;100.00
59859;BME280;45734;53.648;9.566;2022-11-15T16:37:45;100688.38;;;9.36;100.00
59859;BME280;45734;53.648;9.566;2022-11-15T16:42:46;100703.19;;;9.38;100.00
59859;BME280;45734;53.648;9.566;2022-11-15T16:47:46;100700.94;;;9.25;100.00
59859;BME280;45734;53.648;9.566;2022-11-15T16:52:46;100700.25;;;9.23;100.00
59859;BME280;45734;53.648;9.566;2022-11-15T16:57:47;100702.69;;;9.17;100.00
59859;BME280;45734;53.648;9.566;2022-11-15T17:02:49;100700.94;;;9.07;100.00
59859;BME280;45734;53.648;9.566;2022-11-15T17:07:50;100690.25;;;8.99;100.00
59859;BME280;45734;53.648;9.566;2022-11-15T17:12:54;100689.34;;;8.91;100.00
59859;BME280;45734;53.648;9.566;2022-11-15T17:17:55;100671.94;;;8.78;100.00
59859;BME280;45734;53.648;9.566;2022-11-15T17:22:55;100674.66;;;8.69;100.00
59859;BME280;45734;53.648;9.566;2022-11-15T17:27:55;100671.25;;;8.58;100.00
59859;BME280;45734;53.648;9.566;2022-11-15T17:32:55;100666.16;;;8.47;100.00
59859;BME280;45734;53.648;9.566;2022-11-15T17:37:56;100661.72;;;8.38;100.00
59859;BME280;45734;53.648;9.566;2022-11-15T17:42:56;100659.75;;;8.40;100.00
59859;BME280;45734;53.648;9.566;2022-11-15T17:47:56;100663.94;;;8.43;100.00
59859;BME280;45734;53.648;9.566;2022-11-15T17:52:58;100656.97;;;8.42;100.00
59859;BME280;45734;53.648;9.566;2022-11-15T17:57:58;100660.44;;;8.42;100.00
59859;BME280;45734;53.648;9.566;2022-11-15T18:02:58;100654.59;;;8.38;100.00
59859;BME280;45734;53.648;9.566;2022-11-15T18:07:59;100659.63;;;8.42;100.00
59859;BME280;45734;53.648;9.566;2022-11-15T18:12:59;100655.72;;;8.36;100.00
59859;BME280;45734;53.648;9.566;2022-11-15T18:17:59;100643.69;;;8.32;100.00
59859;BME280;45734;53.648;9.566;2022-11-15T18:22:59;100645.81;;;8.28;100.00
59859;BME280;45734;53.648;9.566;2022-11-15T18:28:00;100634.38;;;8.28;100.00
59859;BME280;45734;53.648;9.566;2022-11-15T18:33:00;100624.06;;;8.25;100.00
59859;BME280;45734;53.648;9.566;2022-11-15T18:38:00;100616.00;;;8.16;100.00
59859;BME280;45734;53.648;9.566;2022-11-15T18:43:01;100616.31;;;8.13;100.00
59859;BME280;45734;53.648;9.566;2022-11-15T18:48:01;100606.28;;;8.07;100.00
59859;BME280;45734;53.648;9.566;2022-11-15T18:53:01;100602.56;;;8.00;100.00
59859;BME280;45734;53.648;9.566;2022-11-15T18:58:01;100596.41;;;8.00;100.00
59859;BME280;45734;53.648;9.566;2022-11-15T19:03:02;100596.81;;;8.05;100.00
59859;BME280;45734;53.648;9.566;2022-11-15T19:08:02;100599.44;;;8.14;100.00
59859;BME280;45734;53.648;9.566;2022-11-15T19:13:02;100605.66;;;8.23;100.00
59859;BME280;45734;53.648;9.566;2022-11-15T19:18:03;100603.06;;;8.31;100.00
59859;BME280;45734;53.648;9.566;2022-11-15T19:23:10;100605.53;;;8.43;100.00
59859;BME280;45734;53.648;9.566;2022-11-15T19:28:11;100595.75;;;8.43;100.00
59859;BME280;45734;53.648;9.566;2022-11-15T19:33:11;100598.50;;;8.51;100.00
59859;BME280;45734;53.648;9.566;2022-11-15T19:38:11;100608.81;;;8.54;100.00
59859;BME280;45734;53.648;9.566;2022-11-15T19:43:12;100598.88;;;8.56;100.00
59859;BME280;45734;53.648;9.566;2022-11-15T19:48:12;100594.78;;;8.62;100.00
59859;BME280;45734;53.648;9.566;2022-11-15T19:53:12;100590.69;;;8.68;100.00
59859;BME280;45734;53.648;9.566;2022-11-15T19:58:13;100583.75;;;8.75;100.00
59859;BME280;45734;53.648;9.566;2022-11-15T20:03:13;100585.50;;;8.84;100.00
59859;BME280;45734;53.648;9.566;2022-11-15T20:08:14;100578.22;;;8.86;100.00
59859;BME280;45734;53.648;9.566;2022-11-15T20:13:14;100587.78;;;8.97;100.00
59859;BME280;45734;53.648;9.566;2022-11-15T20:18:15;100590.31;;;9.06;100.00
59859;BME280;45734;53.648;9.566;2022-11-15T20:23:15;100584.38;;;9.13;100.00
59859;BME280;45734;53.648;9.566;2022-11-15T20:28:18;100589.75;;;9.21;100.00
59859;BME280;45734;53.648;9.566;2022-11-15T20:33:19;100575.03;;;9.26;100.00
59859;BME280;45734;53.648;9.566;2022-11-15T20:38:20;100581.91;;;9.37;100.00
59859;BME280;45734;53.648;9.566;2022-11-15T20:43:20;100569.94;;;9.41;100.00
59859;BME280;45734;53.648;9.566;2022-11-15T20:48:21;100576.84;;;9.52;100.00
59859;BME280;45734;53.648;9.566;2022-11-15T20:53:21;100563.34;;;9.53;100.00
59859;BME280;45734;53.648;9.566;2022-11-15T20:58:21;100564.88;;;9.56;100.00
59859;BME280;45734;53.648;9.566;2022-11-15T21:03:22;100563.59;;;9.60;100.00
59859;BME280;45734;53.648;9.566;2022-11-15T21:08:22;100559.09;;;9.61;100.00
59859;BME280;45734;53.648;9.566;2022-11-15T21:13:22;100561.56;;;9.62;100.00
59859;BME280;45734;53.648;9.566;2022-11-15T21:18:23;100549.97;;;9.63;100.00
59859;BME280;45734;53.648;9.566;2022-11-15T21:23:23;100543.50;;;9.66;100.00
59859;BME280;45734;53.648;9.566;2022-11-15T21:28:24;100537.50;;;9.64;100.00
59859;BME280;45734;53.648;9.566;2022-11-15T21:33:27;100535.66;;;9.64;100.00
59859;BME280;45734;53.648;9.566;2022-11-15T21:38:27;100535.16;;;9.61;100.00
59859;BME280;45734;53.648;9.566;2022-11-15T21:43:28;100517.50;;;9.51;100.00
59859;BME280;45734;53.648;9.566;2022-11-15T21:48:29;100538.00;;;9.67;100.00
59859;BME280;45734;53.648;9.566;2022-11-15T21:53:30;100530.03;;;9.67;100.00
59859;BME280;45734;53.648;9.566;2022-11-15T21:58:31;100524.56;;;9.69;100.00
59859;BME280;45734;53.648;9.566;2022-11-15T22:03:31;100529.03;;;9.68;100.00
59859;BME280;45734;53.648;9.566;2022-11-15T22:08:31;100519.72;;;9.64;100.00
59859;BME280;45734;53.648;9.566;2022-11-15T22:13:32;100524.03;;;9.65;100.00
59859;BME280;45734;53.648;9.566;2022-11-15T22:18:32;100523.50;;;9.62;100.00
59859;BME280;45734;53.648;9.566;2022-11-15T22:23:33;100515.72;;;9.60;100.00
59859;BME280;45734;53.648;9.566;2022-11-15T22:28:34;100501.56;;;9.51;100.00
59859;BME280;45734;53.648;9.566;2022-11-15T22:33:35;100500.69;;;9.51;100.00
59859;BME280;45734;53.648;9.566;2022-11-15T22:38:35;100497.34;;;9.41;100.00
59859;BME280;45734;53.648;9.566;2022-11-15T22:43:36;100507.16;;;9.40;100.00
59859;BME280;45734;53.648;9.566;2022-11-15T22:48:37;100507.16;;;9.40;100.00
59859;BME280;45734;53.648;9.566;2022-11-15T22:53:37;100505.00;;;9.44;100.00
59859;BME280;45734;53.648;9.566;2022-11-15T22:58:38;100499.69;;;9.44;100.00
59859;BME280;45734;53.648;9.566;2022-11-15T23:03:39;100505.81;;;9.44;100.00
59859;BME280;45734;53.648;9.566;2022-11-15T23:08:39;100486.72;;;9.41;100.00
59859;BME280;45734;53.648;9.566;2022-11-15T23:13:39;100483.38;;;9.39;100.00
59859;BME280;45734;53.648;9.566;2022-11-15T23:18:40;100479.88;;;9.38;100.00
59859;BME280;45734;53.648;9.566;2022-11-15T23:23:41;100484.19;;;9.39;100.00
59859;BME280;45734;53.648;9.566;2022-11-15T23:28:41;100487.53;;;9.41;100.00
59859;BME280;45734;53.648;9.566;2022-11-15T23:33:42;100483.38;;;9.39;100.00
59859;BME280;45734;53.648;9.566;2022-11-15T23:38:57;100463.09;;;9.38;100.00
59859;BME280;45734;53.648;9.566;2022-11-15T23:43:57;100455.94;;;9.30;100.00
59859;BME280;45734;53.648;9.566;2022-11-15T23:48:58;100444.28;;;9.23;100.00
59859;BME280;45734;53.648;9.566;2022-11-15T23:53:58;100455.69;;;9.15;100.00
59859;BME280;45734;53.648;9.566;2022-11-15T23:58:58;100442.03;;;9.02;100.00
